Time;durP1;ratioP1;P1;durP2;ratioP2;P2;SDS_P1;SDS_P2;PMS_P1;PMS_P2;Temp;Humidity;BMP_temperature;BMP_pressure;BME280_temperature;BME280_humidity;BME280_pressure;Samples;Min_cycle;Max_cycle;Signal;HPM_P1;HPM_P2
2022/04/19 13:39:56;;;;;;;3.90;3.60;;;;;;;8.92;57.83;98695.77;1706129;81;20952;-62
2022/04/19 13:42:24;;;;;;;3.33;3.12;;;;;;;8.69;57.92;98668.38;1726355;82;20994;-63
2022/04/19 13:44:52;;;;;;;5.58;3.67;;;;;;;8.59;58.43;98677.71;1732595;82;21068;-68
2022/04/19 13:47:19;;;;;;;3.90;3.60;;;;;;;8.52;61.13;98681.16;1727454;81;21036;-66
2022/04/19 13:49:47;;;;;;;;;;;;;;;8.58;60.28;98671.56;1670312;83;21057;-67
2022/04/19 13:52:16;;;;;;;3.62;3.33;;;;;;;8.59;61.72;98675.04;1726755;81;20455;-65
2022/04/19 13:54:44;;;;;;;3.87;3.52;;;;;;;8.65;62.22;98676.68;1691454;81;21055;-65
2022/04/19 13:57:12;;;;;;;4.75;3.50;;;;;;;8.67;62.28;98675.89;1738802;81;20905;-65
2022/04/19 13:59:40;;;;;;;4.28;3.35;;;;;;;8.61;62.49;98666.77;1703439;81;21214;-66
2022/04/19 14:02:09;;;;;;;4.62;3.58;;;;;;;8.57;63.52;98669.14;1647705;85;21590;-64
2022/04/19 14:04:37;;;;;;;3.83;3.52;;;;;;;8.63;62.79;98661.96;1659150;85;21223;-63
2022/04/19 14:07:06;;;;;;;3.47;3.17;;;;;;;8.54;61.82;98662.45;1668193;85;20981;-64
2022/04/19 14:09:33;;;;;;;9.10;3.70;;;;;;;8.60;63.76;98671.31;1635523;85;21141;-64
2022/04/19 14:12:04;;;;;;;7.45;3.92;;;;;;;8.57;63.74;98672.64;1722188;81;20991;-65
2022/04/19 14:14:32;;;;;;;5.85;4.08;;;;;;;8.61;63.88;98664.89;1732746;81;21037;-66
2022/04/19 14:17:00;;;;;;;5.20;3.72;;;;;;;8.35;63.89;98662.60;1724799;80;21782;-63
2022/04/19 14:19:29;;;;;;;5.03;3.60;;;;;;;8.35;63.89;98662.60;1727752;80;20927;-65
2022/04/19 14:21:56;;;;;;;4.58;4.00;;;;;;;8.43;65.61;98660.81;1726347;81;20994;-64
2022/04/19 14:24:24;;;;;;;7.25;4.15;;;;;;;8.62;66.74;98657.12;1688086;82;21053;-65
2022/04/19 14:26:51;;;;;;;4.22;3.83;;;;;;;8.67;64.35;98659.01;1687740;82;21055;-64
2022/04/19 14:34:53;;;;;;;3.50;3.25;;;;;;;8.54;65.94;98667.00;1689304;82;21168;-62
2022/04/19 14:37:20;;;;;;;;;;;;;;;8.56;64.55;98669.68;1671796;82;21679;-65
2022/04/19 14:39:47;;;;;;;3.70;3.40;;;;;;;8.55;65.37;98670.76;1684970;83;20221;-64
2022/04/19 14:42:15;;;;;;;3.75;3.25;;;;;;;8.50;64.92;98668.06;1693164;82;21185;-66
2022/04/19 14:44:43;;;;;;;3.77;3.47;;;;;;;8.40;65.65;98673.34;1679076;83;21162;-65
2022/04/19 14:47:10;;;;;;;4.92;3.75;;;;;;;8.30;65.68;98662.04;1687452;82;21515;-65
2022/04/19 14:49:37;;;;;;;7.30;3.37;;;;;;;8.32;67.38;98671.16;1695909;83;21554;-66
2022/04/19 14:52:15;;;;;;;3.87;3.50;;;;;;;8.31;67.57;98677.58;1708095;82;21431;-66
2022/04/19 14:54:45;;;;;;;4.42;3.70;;;;;;;8.41;66.89;98676.84;1700160;81;21191;-65
2022/04/19 14:57:13;;;;;;;8.40;5.00;;;;;;;8.48;67.02;98666.72;1701495;84;21012;-66
2022/04/19 14:59:41;;;;;;;4.15;3.40;;;;;;;8.44;66.41;98654.93;1697655;82;20954;-66
2022/04/19 15:02:11;;;;;;;4.22;3.83;;;;;;;8.44;66.41;98654.93;1693731;82;20999;-65
2022/04/19 15:04:38;;;;;;;13.60;9.00;;;;;;;8.30;66.71;98658.57;1694824;83;20850;-66
2022/04/19 15:07:06;;;;;;;11.83;9.40;;;;;;;8.21;67.55;98657.48;1693949;83;20854;-67
2022/04/19 15:09:34;;;;;;;49.42;28.27;;;;;;;8.27;67.56;98654.55;1695764;82;26638;-67
2022/04/19 15:12:02;;;;;;;5.22;4.62;;;;;;;8.32;67.84;98658.58;1695251;82;21536;-65
2022/04/19 15:14:31;;;;;;;10.63;9.45;;;;;;;8.27;66.87;98653.75;1693975;82;21115;-63
2022/04/19 15:16:58;;;;;;;61.28;39.38;;;;;;;8.20;67.56;98651.84;1693007;82;21059;-65
2022/04/19 15:19:26;;;;;;;39.15;21.77;;;;;;;8.21;68.39;98656.94;1688541;83;20862;-67
2022/04/19 15:21:54;;;;;;;423.37;206.10;;;;;;;8.27;68.83;98658.56;1697495;82;20954;-66
2022/04/19 15:24:23;;;;;;;1164.85;567.25;;;;;;;8.31;69.38;98656.98;1687523;83;28252;-65
2022/04/19 15:26:50;;;;;;;40.52;23.27;;;;;;;8.32;68.86;98657.24;1688216;82;21527;-65
2022/04/19 15:29:18;;;;;;;8.83;6.75;;;;;;;8.23;68.02;98660.16;1694995;83;21929;-67
2022/04/19 15:31:47;;;;;;;18.37;12.03;;;;;;;8.04;69.80;98652.31;1697914;82;21183;-66
2022/04/19 15:34:16;;;;;;;33.55;17.23;;;;;;;8.01;71.44;98654.97;1637410;84;20957;-64
2022/04/19 15:36:43;;;;;;;;;;;;;;;8.02;71.82;98651.77;1698630;82;21037;-68
2022/04/19 15:39:11;;;;;;;759.10;419.58;;;;;;;7.98;72.73;98654.13;1694810;83;20102;-62
2022/04/19 15:41:39;;;;;;;323.43;152.93;;;;;;;7.97;73.05;98662.42;1701312;82;21027;-65
2022/04/19 15:44:06;;;;;;;902.73;553.92;;;;;;;7.97;72.99;98659.75;1666467;84;21059;-65
2022/04/19 15:46:36;;;;;;;;;;;;;;;7.94;73.55;98663.20;1694897;84;20933;-66
2022/04/19 15:49:04;;;;;;;;;;;;;;;7.92;73.82;98654.64;1729451;82;20091;-64
2022/04/19 15:51:32;;;;;;;47.80;23.35;;;;;;;7.90;73.85;98654.63;1684501;82;20107;-65
2022/04/19 15:54:00;;;;;;;29.12;15.15;;;;;;;7.85;74.30;98643.38;1691041;83;21443;-65
2022/04/19 15:56:27;;;;;;;32.03;17.17;;;;;;;7.73;74.69;98645.43;1695199;83;21170;-65
2022/04/19 15:58:55;;;;;;;33.02;16.50;;;;;;;7.72;76.13;98649.17;1695598;82;20975;-64
2022/04/19 16:01:22;;;;;;;17.00;10.43;;;;;;;7.76;77.92;98657.47;1689243;83;21044;-65
2022/04/19 16:03:51;;;;;;;22.35;12.03;;;;;;;7.75;79.67;98657.20;1694176;83;26660;-66
2022/04/19 16:06:18;;;;;;;35.05;16.60;;;;;;;7.69;82.98;98655.84;1685083;82;21014;-65
2022/04/19 16:08:46;;;;;;;23.90;12.05;;;;;;;7.66;84.21;98656.33;1680042;82;20993;-68
2022/04/19 16:11:13;;;;;;;10.45;8.28;;;;;;;7.64;84.62;98652.30;1725533;81;21122;-65
2022/04/19 16:13:42;;;;;;;77.65;30.43;;;;;;;7.58;85.50;98650.67;1721962;82;21032;-67
2022/04/19 16:24:28;;;;;;;32.53;14.58;;;;;;;7.34;89.54;98639.00;1697683;82;20993;-63
2022/04/19 16:26:56;;;;;;;19.48;10.18;;;;;;;7.29;90.76;98645.63;1724870;82;20989;-65
2022/04/19 16:29:25;;;;;;;16.60;9.58;;;;;;;7.23;91.92;98638.66;1690914;82;21602;-65
2022/04/19 16:31:52;;;;;;;44.13;19.92;;;;;;;7.18;92.14;98640.75;1688612;83;21131;-65
2022/04/19 16:34:20;;;;;;;29.10;14.03;;;;;;;7.12;93.34;98639.61;1643434;84;21072;-65
2022/04/19 16:36:49;;;;;;;13.53;8.38;;;;;;;7.05;94.58;98638.48;1689244;82;20862;-65
2022/04/19 16:39:18;;;;;;;16.23;7.58;;;;;;;6.94;96.03;98640.25;1690096;83;20938;-63
2022/04/19 16:41:48;;;;;;;11.93;8.85;;;;;;;6.87;96.73;98635.65;1682270;83;21440;-64
2022/04/19 16:44:16;;;;;;;15.75;9.73;;;;;;;6.84;97.81;98637.49;1703654;81;20884;-64
2022/04/19 16:46:43;;;;;;;25.55;10.28;;;;;;;6.79;99.04;98629.44;1688640;82;21231;-64
2022/04/19 16:49:11;;;;;;;25.10;13.80;;;;;;;6.70;99.52;98635.73;1689894;83;21565;-63
2022/04/19 16:51:40;;;;;;;37.80;18.60;;;;;;;6.65;100.00;98632.48;1698556;82;21588;-64
2022/04/19 16:54:08;;;;;;;53.08;22.10;;;;;;;6.59;100.00;98632.17;1727120;82;20911;-64
2022/04/19 16:56:35;;;;;;;35.13;16.87;;;;;;;6.55;100.00;98636.37;1723975;81;20981;-65
2022/04/19 16:59:02;;;;;;;33.30;16.37;;;;;;;6.51;100.00;98634.46;1729384;82;21161;-66
2022/04/19 17:01:31;;;;;;;20.05;11.68;;;;;;;6.47;100.00;98638.67;1698696;81;20938;-66
2022/04/19 17:04:06;;;;;;;8.05;6.53;;;;;;;6.43;100.00;98631.17;1726138;81;20945;-64
2022/04/19 17:06:31;;;;;;;14.78;7.10;;;;;;;6.40;100.00;98640.21;1686007;83;21001;-66
2022/04/19 17:08:59;;;;;;;20.50;11.00;;;;;;;6.35;100.00;98642.81;1688430;82;20968;-66
2022/04/19 17:11:29;;;;;;;27.67;13.70;;;;;;;6.32;100.00;98643.30;1649830;84;21258;-66
2022/04/19 17:13:57;;;;;;;28.45;14.47;;;;;;;6.29;100.00;98651.79;1698037;83;20889;-66
2022/04/19 17:16:25;;;;;;;36.90;20.80;;;;;;;6.25;100.00;98658.16;1694521;82;21041;-65
2022/04/19 17:18:55;;;;;;;44.45;22.27;;;;;;;6.22;100.00;98662.63;1690727;84;20939;-66
2022/04/19 17:21:22;;;;;;;;;;;;;;;6.18;100.00;98668.19;1693484;82;20988;-65
2022/04/19 17:23:49;;;;;;;48.40;25.57;;;;;;;6.13;100.00;98658.80;1690976;83;21103;-66
2022/04/19 17:26:18;;;;;;;39.85;21.62;;;;;;;6.09;100.00;98663.00;1691770;82;21598;-64
2022/04/19 17:28:47;;;;;;;39.83;21.40;;;;;;;6.07;100.00;98665.09;1688476;83;20970;-66
2022/04/19 17:31:16;;;;;;;16.93;12.15;;;;;;;6.04;100.00;98661.59;1699156;83;21017;-65
2022/04/19 17:33:44;;;;;;;45.58;23.27;;;;;;;6.00;100.00;98661.27;1696475;84;21005;-65
2022/04/19 17:36:12;;;;;;;23.00;15.78;;;;;;;5.98;100.00;98662.06;1690901;83;21117;-65
2022/04/19 17:38:41;;;;;;;18.55;8.63;;;;;;;5.94;100.00;98675.58;1695615;83;21587;-66
2022/04/19 17:41:14;;;;;;;11.78;7.62;;;;;;;5.91;100.00;98668.05;1695147;82;21473;-66
2022/04/19 17:43:42;;;;;;;9.98;7.17;;;;;;;5.87;100.00;98664.26;1731924;81;21028;-67
2022/04/19 17:46:10;;;;;;;9.78;8.30;;;;;;;5.85;100.00;98669.02;1695953;83;21520;-66
2022/04/19 17:48:41;;;;;;;11.45;6.22;;;;;;;5.83;100.00;98673.78;1707412;81;20889;-64
2022/04/19 17:56:32;;;;;;;6.83;5.62;;;;;;;5.76;100.00;98678.76;1735612;82;21029;-65
2022/04/19 17:59:08;;;;;;;7.40;5.90;;;;;;;5.73;100.00;98684.58;1696752;81;21031;-65
2022/04/19 18:01:42;;;;;;;9.80;7.25;;;;;;;5.72;100.00;98686.14;1745882;81;21165;-65
2022/04/19 18:04:09;;;;;;;14.47;10.55;;;;;;;5.70;100.00;98690.37;1731611;81;20956;-66
2022/04/19 18:06:44;;;;;;;15.55;11.08;;;;;;;5.69;100.00;98690.10;1695720;82;21056;-65
2022/04/19 18:09:17;;;;;;;10.10;7.53;;;;;;;5.65;100.00;98688.96;1719624;81;21439;-66
2022/04/19 18:11:47;;;;;;;5.05;4.65;;;;;;;5.64;100.00;98690.55;1728055;82;21426;-64
2022/04/19 18:14:14;;;;;;;7.00;5.37;;;;;;;5.58;100.00;98670.52;1743820;81;21810;-65
2022/04/19 18:16:44;;;;;;;5.45;4.95;;;;;;;5.58;100.00;98686.98;1741824;81;21541;-65
2022/04/19 18:19:15;;;;;;;14.70;6.15;;;;;;;5.52;100.00;98675.45;1725020;81;21099;-66
2022/04/19 18:27:16;;;;;;;5.37;4.80;;;;;;;5.46;100.00;98666.30;1719338;82;21250;-64
2022/04/19 18:29:43;;;;;;;6.70;6.03;;;;;;;5.39;100.00;98682.44;1727433;81;21676;-66
2022/04/19 18:32:11;;;;;;;5.20;4.80;;;;;;;5.39;100.00;98682.44;1725507;82;21710;-64
2022/04/19 18:34:38;;;;;;;5.70;5.10;;;;;;;5.37;100.00;98674.69;1721286;81;20905;-64
2022/04/19 18:37:05;;;;;;;4.55;4.25;;;;;;;5.34;100.00;98669.02;1694833;82;20960;-66
2022/04/19 18:39:32;;;;;;;5.65;5.15;;;;;;;5.33;100.00;98676.73;1690748;83;21417;-65
2022/04/19 18:42:02;;;;;;;5.30;4.80;;;;;;;5.30;100.00;98674.03;1697457;82;20914;-64
2022/04/19 18:44:31;;;;;;;5.10;4.62;;;;;;;5.28;100.00;98674.00;1691450;83;20958;-65
2022/04/19 18:47:02;;;;;;;4.67;4.28;;;;;;;5.27;100.00;98676.39;1687622;82;21017;-66
2022/04/19 18:49:33;;;;;;;5.22;4.72;;;;;;;5.25;100.00;98673.16;1692244;83;20969;-67
2022/04/19 18:52:00;;;;;;;6.03;4.87;;;;;;;5.22;100.00;98665.63;1694697;83;21210;-65
2022/04/19 18:54:29;;;;;;;5.28;4.78;;;;;;;5.20;100.00;98680.52;1688260;82;20941;-65
2022/04/19 18:56:58;;;;;;;5.60;5.10;;;;;;;5.21;100.00;98676.00;1691761;83;20903;-66
2022/04/19 18:59:25;;;;;;;5.45;4.90;;;;;;;5.17;100.00;98665.05;1695211;83;20902;-64
2022/04/19 19:01:57;;;;;;;5.70;5.20;;;;;;;5.15;100.00;98659.16;1690621;83;21583;-66
2022/04/19 19:04:25;;;;;;;4.95;4.55;;;;;;;5.14;100.00;98658.85;1697791;82;21249;-67
2022/04/19 19:06:53;;;;;;;5.22;4.83;;;;;;;5.10;100.00;98657.73;1689178;84;21077;-65
2022/04/19 19:09:22;;;;;;;5.33;4.92;;;;;;;5.05;100.00;98652.33;1688560;81;20992;-65
2022/04/19 19:11:50;;;;;;;5.40;4.90;;;;;;;5.02;100.00;98654.95;1702980;82;20989;-65
2022/04/19 19:14:17;;;;;;;5.05;4.60;;;;;;;4.99;100.00;98647.95;1714455;81;21504;-66
2022/04/19 19:16:45;;;;;;;5.30;4.80;;;;;;;4.96;100.00;98633.81;1717838;83;21440;-64
2022/04/19 19:19:14;;;;;;;;;;;;;;;4.92;100.00;98646.27;1717028;81;20898;-64
2022/04/19 19:21:41;;;;;;;5.20;4.80;;;;;;;4.90;100.00;98648.85;1708307;83;20122;-65
2022/04/19 19:24:12;;;;;;;7.35;5.15;;;;;;;4.88;100.00;98642.47;1707837;82;20973;-65
2022/04/19 19:26:43;;;;;;;4.92;4.53;;;;;;;4.85;100.00;98642.12;1707858;83;21120;-65
2022/04/19 19:29:10;;;;;;;5.00;4.60;;;;;;;4.84;100.00;98642.64;1712233;82;21269;-65
2022/04/19 19:31:39;;;;;;;6.75;6.05;;;;;;;4.85;100.00;98639.45;1707714;82;21484;-65
2022/04/19 19:34:07;;;;;;;5.67;5.08;;;;;;;4.83;100.00;98645.56;1707846;81;20945;-68
2022/04/19 19:36:34;;;;;;;5.87;5.37;;;;;;;4.82;100.00;98649.25;1703002;83;29069;-63
2022/04/19 19:39:03;;;;;;;5.67;5.28;;;;;;;4.79;100.00;98635.91;1708338;82;21591;-65
2022/04/19 19:41:31;;;;;;;7.83;6.58;;;;;;;4.79;100.00;98644.41;1705465;83;21157;-64
2022/04/19 19:43:57;;;;;;;6.15;5.60;;;;;;;4.77;100.00;98637.99;1706225;83;20906;-64
2022/04/19 19:46:27;;;;;;;6.10;5.60;;;;;;;4.75;100.00;98624.66;1708099;83;20990;-65
2022/04/19 19:48:56;;;;;;;5.97;5.47;;;;;;;4.73;100.00;98635.55;1681430;83;21601;-66
2022/04/19 19:51:25;;;;;;;12.40;6.35;;;;;;;4.71;100.00;98634.97;1710006;83;20898;-65
2022/04/19 19:53:51;;;;;;;6.45;5.85;;;;;;;4.68;100.00;98628.81;1705622;83;21175;-66
2022/04/19 19:56:21;;;;;;;6.80;6.10;;;;;;;4.66;100.00;98629.56;1707147;82;37830;-64
2022/04/19 19:58:48;;;;;;;7.33;6.40;;;;;;;4.62;100.00;98633.20;1711038;82;21081;-64
2022/04/19 20:01:16;;;;;;;6.20;5.60;;;;;;;4.64;100.00;98638.30;1713662;82;20993;-66
2022/04/19 20:03:46;;;;;;;6.20;5.60;;;;;;;4.63;100.00;98644.64;1706663;82;20943;-66
2022/04/19 20:06:12;;;;;;;6.50;5.95;;;;;;;4.60;100.00;98637.14;1706785;83;21169;-66
2022/04/19 20:08:41;;;;;;;6.87;6.08;;;;;;;4.58;100.00;98640.05;1705113;83;20867;-67
2022/04/19 20:11:08;;;;;;;6.75;6.15;;;;;;;4.56;100.00;98646.13;1707118;83;20959;-64
2022/04/19 20:13:35;;;;;;;6.72;6.10;;;;;;;4.54;100.00;98650.06;1707667;82;20942;-66
2022/04/19 20:16:04;;;;;;;6.90;5.40;;;;;;;4.54;100.00;98648.20;1705876;82;20903;-67
2022/04/19 20:18:34;;;;;;;6.30;5.80;;;;;;;4.55;100.00;98651.14;1708698;81;21929;-67
2022/04/19 20:21:02;;;;;;;7.53;5.40;;;;;;;4.55;100.00;98644.49;1704513;83;20922;-67
2022/04/19 20:23:29;;;;;;;7.87;5.65;;;;;;;4.56;100.00;98646.63;1706303;82;20898;-65
2022/04/19 20:25:59;;;;;;;6.60;5.28;;;;;;;4.53;100.00;98641.27;1706842;82;21025;-65
2022/04/19 20:28:28;;;;;;;6.00;5.50;;;;;;;4.52;100.00;98647.63;1704837;83;21066;-67
2022/04/19 20:33:22;;;;;;;6.30;5.40;;;;;;;4.50;100.00;98649.71;1719487;82;20939;-64
2022/04/19 20:35:49;;;;;;;5.95;5.30;;;;;;;4.49;100.00;98648.11;1703657;83;21490;-66
2022/04/19 20:38:16;;;;;;;6.42;5.83;;;;;;;4.49;100.00;98650.23;1705787;83;21050;-65
2022/04/19 20:40:43;;;;;;;6.17;5.67;;;;;;;4.48;100.00;98649.97;1705537;83;20891;-66
2022/04/19 20:43:11;;;;;;;6.37;5.78;;;;;;;4.46;100.00;98651.25;1687674;82;21275;-66
2022/04/19 20:45:38;;;;;;;5.78;5.28;;;;;;;4.47;100.00;98654.18;1703778;83;20942;-65
2022/04/19 20:50:54;;;;;;;6.33;5.72;;;;;;;4.44;100.00;98657.31;1704879;83;20970;-64
2022/04/19 20:53:21;;;;;;;6.42;5.20;;;;;;;4.43;100.00;98655.16;1704834;83;20998;-66
2022/04/19 20:55:53;;;;;;;6.50;5.90;;;;;;;4.43;100.00;98657.01;1703454;83;21087;-65
2022/04/19 20:58:17;;;;;;;6.95;6.25;;;;;;;4.43;100.00;98653.03;1708764;82;21132;-67
2022/04/19 21:00:44;;;;;;;7.17;6.42;;;;;;;4.40;100.00;98646.33;1710367;83;20997;-65
2022/04/19 21:03:12;;;;;;;7.37;6.60;;;;;;;4.40;100.00;98645.00;1711601;83;20918;-65
2022/04/19 21:05:39;;;;;;;7.05;6.45;;;;;;;4.41;100.00;98651.12;1711079;82;21240;-66
2022/04/19 21:08:07;;;;;;;7.03;6.33;;;;;;;4.38;100.00;98645.76;1712891;83;21184;-63
2022/04/19 21:10:35;;;;;;;7.00;6.30;;;;;;;4.40;100.00;98641.02;1709994;82;20986;-62
2022/04/19 21:13:09;;;;;;;7.83;6.33;;;;;;;4.39;100.00;98644.73;1704899;83;20942;-65
2022/04/19 21:15:37;;;;;;;8.83;6.67;;;;;;;4.38;100.00;98636.98;1698586;82;20902;-64
2022/04/19 21:18:06;;;;;;;;;;;;;;;4.35;100.00;98643.58;1717672;81;21007;-65
2022/04/19 21:20:34;;;;;;;7.20;6.50;;;;;;;4.35;100.00;98644.91;1674680;83;20113;-65
2022/04/19 21:23:01;;;;;;;7.60;6.85;;;;;;;4.35;100.00;98646.23;1687943;84;20934;-65
2022/04/19 21:25:28;;;;;;;8.15;7.12;;;;;;;4.35;100.00;98648.89;1703566;82;20924;-65
2022/04/19 21:27:55;;;;;;;8.45;7.55;;;;;;;4.33;100.00;98654.95;1703071;83;20961;-66
2022/04/19 21:30:22;;;;;;;10.50;8.05;;;;;;;4.34;100.00;98651.80;1701708;83;21527;-65
2022/04/19 21:32:50;;;;;;;7.85;6.92;;;;;;;4.31;100.00;98655.70;1671203;84;20996;-65
2022/04/19 21:35:18;;;;;;;8.48;7.60;;;;;;;4.31;100.00;98662.34;1700971;82;21472;-65
2022/04/19 21:37:45;;;;;;;8.33;6.70;;;;;;;4.30;100.00;98663.41;1680832;84;21436;-66
2022/04/19 21:40:13;;;;;;;8.68;7.80;;;;;;;4.26;100.00;98656.44;1704707;82;21115;-66
2022/04/19 21:42:42;;;;;;;7.80;7.00;;;;;;;4.28;100.00;98645.55;1734137;81;20981;-65
2022/04/19 21:45:10;;;;;;;10.55;7.08;;;;;;;4.27;100.00;98643.42;1718591;82;21812;-66
2022/04/19 21:47:37;;;;;;;;;;;;;;;4.27;100.00;98646.08;1684581;83;21422;-66
2022/04/19 21:50:08;;;;;;;9.63;6.47;;;;;;;4.27;100.00;98650.59;1700984;83;20120;-65
2022/04/19 21:52:37;;;;;;;7.42;6.25;;;;;;;4.27;100.00;98653.25;1686775;83;20908;-66
2022/04/19 21:55:07;;;;;;;7.00;6.30;;;;;;;4.26;100.00;98645.81;1729643;82;20921;-66
2022/04/19 21:57:36;;;;;;;7.08;6.45;;;;;;;4.26;100.00;98641.83;1722511;82;21113;-66
2022/04/19 22:00:06;;;;;;;6.65;5.92;;;;;;;4.25;100.00;98635.41;1727219;82;20921;-66
2022/04/19 22:02:35;;;;;;;6.65;6.05;;;;;;;4.24;100.00;98634.61;1704510;82;21516;-66
2022/04/19 22:05:04;;;;;;;6.90;6.20;;;;;;;4.22;100.00;98622.60;1712863;81;20980;-66
2022/04/19 22:07:33;;;;;;;7.53;6.83;;;;;;;4.20;100.00;98625.48;1726154;82;20980;-66
2022/04/19 22:10:01;;;;;;;7.20;6.42;;;;;;;4.20;100.00;98619.38;1736086;82;20921;-66
2022/04/19 22:12:29;;;;;;;6.95;6.12;;;;;;;4.20;100.00;98624.69;1716756;81;21017;-65
2022/04/19 22:14:56;;;;;;;6.90;5.65;;;;;;;4.19;100.00;98623.88;1704027;84;21016;-66
2022/04/19 22:17:23;;;;;;;6.17;5.58;;;;;;;4.19;100.00;98622.55;1697504;82;21511;-65
2022/04/19 22:19:50;;;;;;;6.12;5.53;;;;;;;4.19;100.00;98620.39;1703844;84;21423;-65
2022/04/19 22:22:18;;;;;;;8.28;7.00;;;;;;;4.17;100.00;98621.97;1700516;82;21424;-66
2022/04/19 22:24:45;;;;;;;6.58;5.83;;;;;;;4.17;100.00;98619.32;1699470;82;21444;-66
2022/04/19 22:27:12;;;;;;;6.28;5.30;;;;;;;4.18;100.00;98616.14;1702749;84;21000;-66
2022/04/19 22:29:39;;;;;;;7.15;5.83;;;;;;;4.17;100.00;98615.34;1700280;83;20940;-67
2022/04/19 22:32:06;;;;;;;7.33;6.62;;;;;;;4.17;100.00;98614.53;1703502;84;20939;-66
2022/04/19 22:34:34;;;;;;;7.53;6.37;;;;;;;4.16;100.00;98611.05;1700794;84;21185;-66
2022/04/19 22:37:01;;;;;;;6.70;5.92;;;;;;;4.16;100.00;98602.28;1699701;83;20917;-67
2022/04/19 22:39:27;;;;;;;8.28;5.83;;;;;;;4.14;100.00;98597.72;1701179;84;20997;-66
2022/04/19 22:41:56;;;;;;;6.87;6.17;;;;;;;4.14;100.00;98599.05;1702021;82;21626;-64
2022/04/19 22:44:25;;;;;;;6.72;5.87;;;;;;;4.13;100.00;98598.77;1704600;82;21070;-65
2022/04/19 22:46:52;;;;;;;6.78;6.08;;;;;;;4.11;100.00;98596.34;1702597;82;21186;-65
2022/04/19 22:49:20;;;;;;;7.40;6.55;;;;;;;4.11;100.00;98591.55;1702916;82;21454;-64
2022/04/19 22:51:48;;;;;;;6.75;6.05;;;;;;;4.11;100.00;98588.90;1703494;82;20917;-65
2022/04/19 22:54:16;;;;;;;7.45;6.30;;;;;;;4.08;100.00;98589.66;1706392;82;20909;-65
2022/04/19 22:56:46;;;;;;;6.33;5.42;;;;;;;4.07;100.00;98592.56;1704867;84;21491;-66
2022/04/19 22:59:14;;;;;;;6.67;5.97;;;;;;;4.07;100.00;98594.69;1706287;84;21960;-66
2022/04/19 23:01:42;;;;;;;7.55;6.85;;;;;;;4.07;100.00;98591.23;1703045;82;21083;-65
2022/04/19 23:04:08;;;;;;;8.25;6.20;;;;;;;4.04;100.00;98593.84;1677541;84;21004;-65
2022/04/19 23:06:37;;;;;;;6.70;6.10;;;;;;;4.02;100.00;98591.93;1697411;82;20985;-66
2022/04/19 23:09:04;;;;;;;10.00;6.95;;;;;;;4.00;100.00;98587.38;1705542;84;20961;-64
2022/04/19 23:11:30;;;;;;;8.25;6.80;;;;;;;3.97;100.00;98587.02;1665474;82;21123;-66
2022/04/19 23:13:57;;;;;;;8.38;6.40;;;;;;;3.94;100.00;98586.97;1703398;83;20913;-65
2022/04/19 23:16:25;;;;;;;7.97;6.65;;;;;;;3.94;100.00;98588.30;1706031;83;20901;-66
2022/04/19 23:18:53;;;;;;;7.35;6.55;;;;;;;3.92;100.00;98583.77;1701807;82;20953;-66
2022/04/19 23:21:20;;;;;;;7.47;6.33;;;;;;;3.90;100.00;98576.55;1705567;82;20928;-66
2022/04/19 23:23:48;;;;;;;9.98;6.58;;;;;;;3.86;100.00;98568.75;1724182;82;20925;-66
2022/04/19 23:29:02;;;;;;;8.38;6.87;;;;;;;3.82;100.00;98564.95;1684805;83;20943;-63
2022/04/19 23:31:28;;;;;;;7.95;6.80;;;;;;;3.79;100.00;98568.87;1708049;82;23118;-64
2022/04/19 23:33:56;;;;;;;7.90;7.10;;;;;;;3.78;100.00;98567.27;1702053;83;21587;-65
2022/04/19 23:36:24;;;;;;;7.50;6.80;;;;;;;3.77;100.00;98568.82;1706567;82;21074;-65
2022/04/19 23:38:52;;;;;;;11.78;7.35;;;;;;;3.75;100.00;98570.90;1685153;83;20933;-66
2022/04/19 23:41:18;;;;;;;9.48;7.50;;;;;;;3.77;100.00;98570.15;1723303;81;20965;-64
2022/04/19 23:43:45;;;;;;;8.30;6.62;;;;;;;3.75;100.00;98573.05;1724996;82;21445;-64
2022/04/19 23:46:12;;;;;;;8.48;7.62;;;;;;;3.78;100.00;98579.74;1684064;83;20991;-63
2022/04/19 23:48:40;;;;;;;8.83;7.92;;;;;;;3.74;100.00;98578.06;1729478;82;21563;-65
2022/04/19 23:51:08;;;;;;;8.00;7.30;;;;;;;3.74;100.00;98573.28;1700050;83;20953;-65
2022/04/19 23:53:36;;;;;;;7.83;6.97;;;;;;;3.73;100.00;98575.13;1691442;83;20964;-65
2022/04/19 23:56:05;;;;;;;8.33;7.42;;;;;;;3.72;100.00;98576.16;1686257;83;21513;-63
2022/04/19 23:58:32;;;;;;;7.10;6.40;;;;;;;3.72;100.00;98572.70;1741404;81;21605;-65
